createdAt,value
2018-06-11T00:02:00.745Z,12.85
2018-06-11T00:04:30.140Z,13.48
2018-06-11T00:06:59.345Z,13.28
2018-06-11T00:09:28.812Z,13.75
2018-06-11T00:11:58.641Z,13.28
2018-06-11T00:14:27.836Z,14.05
2018-06-11T00:16:57.036Z,12.07
2018-06-11T00:19:26.232Z,13.00
2018-06-11T00:21:56.496Z,13.15
2018-06-11T00:24:25.633Z,12.65
2018-06-11T00:26:54.849Z,14.87
2018-06-11T00:29:24.648Z,13.20
2018-06-11T00:31:54.256Z,12.18
2018-06-11T00:34:24.276Z,12.60
2018-06-11T00:36:53.924Z,15.15
2018-06-11T00:39:23.070Z,14.68
2018-06-11T00:41:52.516Z,14.58
2018-06-11T00:44:21.676Z,16.05
2018-06-11T00:46:52.104Z,12.13
2018-06-11T00:49:22.344Z,13.80
2018-06-11T00:51:51.536Z,15.38
2018-06-11T00:54:21.684Z,14.43
2018-06-11T00:56:50.818Z,12.65
2018-06-11T00:59:20.049Z,13.15
2018-06-11T01:01:49.236Z,14.53
2018-06-11T01:04:18.424Z,12.78
2018-06-11T01:06:47.660Z,14.90
2018-06-11T01:09:17.491Z,15.98
2018-06-11T01:11:46.680Z,14.38
2018-06-11T01:14:15.881Z,17.05
2018-06-11T01:16:45.352Z,13.25
2018-06-11T01:19:14.581Z,15.18
2018-06-11T01:21:43.653Z,14.70
2018-06-11T01:24:13.151Z,15.45
2018-06-11T01:26:42.332Z,16.70
2018-06-11T01:29:11.965Z,14.05
2018-06-11T01:31:41.353Z,14.33
2018-06-11T01:34:10.565Z,13.03
2018-06-11T01:36:39.765Z,14.73
2018-06-11T01:39:09.600Z,13.40
2018-06-11T01:41:38.772Z,14.47
2018-06-11T01:44:07.996Z,15.90
2018-06-11T01:46:37.192Z,17.02
2018-06-11T01:49:06.568Z,16.50
2018-06-11T01:51:35.768Z,17.73
2018-06-11T01:54:05.872Z,16.48
2018-06-11T01:56:35.088Z,16.57
2018-06-11T01:59:04.268Z,15.85
2018-06-11T02:01:33.836Z,16.80
2018-06-11T02:04:02.911Z,15.78
2018-06-11T02:06:32.208Z,15.98
2018-06-11T02:09:01.408Z,17.55
2018-06-11T02:11:30.650Z,17.17
2018-06-11T02:14:00.520Z,16.45
2018-06-11T02:16:30.089Z,20.00
2018-06-11T02:18:59.486Z,20.65
2018-06-11T02:21:28.624Z,21.82
2018-06-11T02:23:58.080Z,21.90
2018-06-11T02:26:27.280Z,23.40
2018-06-11T02:28:57.101Z,22.67
2018-06-11T02:31:26.644Z,22.07
2018-06-11T02:33:55.741Z,19.55
2018-06-11T02:36:24.912Z,18.23
2018-06-11T02:38:54.509Z,20.05
2018-06-11T02:41:23.717Z,18.75
2018-06-11T02:43:53.096Z,18.50
2018-06-11T02:46:22.344Z,22.25
2018-06-11T02:48:51.493Z,20.55
2018-06-11T02:51:20.683Z,18.77
2018-06-11T02:53:49.796Z,22.60
2018-06-11T02:56:19.724Z,20.57
2018-06-11T02:58:48.856Z,17.90
2018-06-11T03:01:18.136Z,18.42
2018-06-11T03:03:47.200Z,21.48
2018-06-11T03:06:16.421Z,21.10
2018-06-11T03:08:45.916Z,21.87
2018-06-11T03:11:15.097Z,22.45
2018-06-11T03:13:44.700Z,24.82
2018-06-11T03:16:14.420Z,25.68
2018-06-11T03:18:43.616Z,26.75
2018-06-11T03:21:12.832Z,25.08
2018-06-11T03:23:42.572Z,26.87
2018-06-11T03:26:11.724Z,26.30
2018-06-11T03:28:40.832Z,26.05
2018-06-11T03:31:10.361Z,26.80
2018-06-11T03:33:39.769Z,21.95
2018-06-11T03:36:08.916Z,22.58
2018-06-11T03:38:39.388Z,21.52
2018-06-11T03:41:08.529Z,23.52
2018-06-11T03:43:37.760Z,22.30
2018-06-11T03:46:07.288Z,22.02
2018-06-11T03:48:36.493Z,22.80
2018-06-11T03:51:05.584Z,23.07
2018-06-11T03:53:34.772Z,20.10
2018-06-11T03:56:03.981Z,20.10
2018-06-11T03:58:34.480Z,22.35
2018-06-11T04:01:03.972Z,20.65
2018-06-11T04:03:33.185Z,19.65
2018-06-11T04:06:02.409Z,20.62
2018-06-11T04:08:31.976Z,20.62
2018-06-11T04:11:01.283Z,21.23
2018-06-11T04:13:30.412Z,20.90
2018-06-11T04:15:59.572Z,24.60
2018-06-11T04:18:28.704Z,24.70
2018-06-11T04:20:58.685Z,23.02
2018-06-11T04:23:28.700Z,22.67
2018-06-11T04:25:57.932Z,24.25
2018-06-11T04:28:27.136Z,20.97
2018-06-11T04:30:56.355Z,21.85
2018-06-11T04:33:25.480Z,20.08
2018-06-11T04:35:54.720Z,18.82
2018-06-11T04:38:23.815Z,18.95
2018-06-11T04:40:52.996Z,19.73
2018-06-11T04:43:22.192Z,20.92
2018-06-11T04:45:51.684Z,19.45
2018-06-11T04:48:21.001Z,20.40
2018-06-11T04:50:50.322Z,22.45
2018-06-11T04:53:19.520Z,20.20
2018-06-11T04:55:48.677Z,21.17
2018-06-11T04:58:17.818Z,20.88
2018-06-11T05:00:47.692Z,20.70
2018-06-11T05:03:16.888Z,23.80
2018-06-11T05:05:46.104Z,23.32
2018-06-11T05:08:15.605Z,23.45
2018-06-11T05:10:44.808Z,21.85
2018-06-11T05:13:14.016Z,22.58
2018-06-11T05:15:44.353Z,25.12
2018-06-11T05:18:14.532Z,24.52
2018-06-11T05:20:43.769Z,26.02
2018-06-11T05:23:12.945Z,26.07
2018-06-11T05:25:43.156Z,25.60
2018-06-11T05:28:13.412Z,24.10
2018-06-11T05:30:43.453Z,25.37
2018-06-11T05:33:13.492Z,23.73
2018-06-11T05:35:43.629Z,24.80
2018-06-11T05:38:14.090Z,25.82
2018-06-11T05:40:43.992Z,26.25
2018-06-11T05:43:13.832Z,26.40
2018-06-11T05:45:44.561Z,26.65
2018-06-11T05:48:14.591Z,25.57
2018-06-11T05:50:44.873Z,27.82
2018-06-11T05:53:15.788Z,27.58
2018-06-11T05:55:46.882Z,28.20
2018-06-11T05:58:16.588Z,28.50
2018-06-11T06:00:46.592Z,28.32
2018-06-11T06:03:16.724Z,29.05
2018-06-11T06:05:46.073Z,29.82
2018-06-11T06:08:16.143Z,30.45
2018-06-11T06:10:46.469Z,28.55
2018-06-11T06:13:16.640Z,28.30
2018-06-11T06:15:45.937Z,26.90
2018-06-11T06:18:15.847Z,27.32
2018-06-11T06:20:45.762Z,29.35
2018-06-11T06:23:16.110Z,27.93
2018-06-11T06:25:46.112Z,29.48
2018-06-11T06:28:15.360Z,28.07
2018-06-11T06:30:45.527Z,28.50
2018-06-11T06:33:15.281Z,28.23
2018-06-11T06:35:45.784Z,28.98
2018-06-11T06:38:16.175Z,27.32
2018-06-11T06:40:46.181Z,26.30
2018-06-11T06:43:16.588Z,28.75
2018-06-11T06:45:46.752Z,31.87
2018-06-11T06:48:16.824Z,27.90
2018-06-11T06:50:47.020Z,30.40
2018-06-11T06:53:17.483Z,30.55
2018-06-11T06:55:47.332Z,30.97
2018-06-11T06:58:17.017Z,30.05
2018-06-11T07:00:47.029Z,29.10
2018-06-11T07:03:17.434Z,33.33
2018-06-11T07:05:47.507Z,31.77
2018-06-11T07:08:17.725Z,31.07
2018-06-11T07:10:48.058Z,29.60
2018-06-11T07:13:18.125Z,29.23
2018-06-11T07:15:47.089Z,28.70
2018-06-11T07:18:17.184Z,28.57
2018-06-11T07:20:48.174Z,25.70
2018-06-11T07:23:18.196Z,29.05
2018-06-11T07:25:48.094Z,26.80
2018-06-11T07:28:17.461Z,30.17
2018-06-11T07:30:47.937Z,25.35
2018-06-11T07:33:18.251Z,26.82
2018-06-11T07:35:48.117Z,25.65
2018-06-11T07:38:18.356Z,25.37
2018-06-11T07:40:48.518Z,22.60
2018-06-11T07:43:18.416Z,24.55
2018-06-11T07:45:49.373Z,26.82
2018-06-11T07:48:20.083Z,27.10
2018-06-11T07:50:50.678Z,28.70
2018-06-11T07:53:20.648Z,29.63
2018-06-11T07:55:51.084Z,28.30
2018-06-11T07:58:21.507Z,27.35
2018-06-11T08:00:51.583Z,26.65
2018-06-11T08:03:21.433Z,25.25
2018-06-11T08:05:50.709Z,26.33
2018-06-11T08:08:20.817Z,28.42
2018-06-11T08:10:50.844Z,27.45
2018-06-11T08:13:21.166Z,29.55
2018-06-11T08:15:51.116Z,24.72
2018-06-11T08:18:21.500Z,27.75
2018-06-11T08:20:52.637Z,20.95
2018-06-11T08:23:22.488Z,25.15
2018-06-11T08:25:52.374Z,25.48
2018-06-11T08:28:23.200Z,22.35
2018-06-11T08:30:53.168Z,23.57
2018-06-11T08:33:23.917Z,21.00
2018-06-11T08:35:54.012Z,22.50
2018-06-11T08:38:24.783Z,24.32
2018-06-11T08:40:54.877Z,26.23
2018-06-11T08:43:26.133Z,27.67
2018-06-11T08:45:56.408Z,27.75
2018-06-11T08:48:26.599Z,26.80
2018-06-11T08:50:57.306Z,24.40
2018-06-11T08:53:27.776Z,26.05
2018-06-11T08:55:57.838Z,25.43
2018-06-11T08:58:27.132Z,23.20
2018-06-11T09:00:57.157Z,25.50
2018-06-11T09:03:26.633Z,23.32
2018-06-11T09:05:58.290Z,24.60
2018-06-11T09:08:28.397Z,21.95
2018-06-11T09:10:58.303Z,21.73
2018-06-11T09:13:27.765Z,24.43
2018-06-11T09:15:58.028Z,24.82
2018-06-11T09:18:28.274Z,24.12
2018-06-11T09:20:58.907Z,21.25
2018-06-11T09:23:30.370Z,24.47
2018-06-11T09:26:01.795Z,23.73
2018-06-11T09:28:31.729Z,23.25
2018-06-11T09:31:02.013Z,21.20
2018-06-11T09:33:32.248Z,23.70
2018-06-11T09:36:03.415Z,21.93
2018-06-11T09:38:33.712Z,21.02
2018-06-11T09:41:04.119Z,21.10
2018-06-11T09:43:34.345Z,17.67
2018-06-11T09:46:05.049Z,21.05
2018-06-11T09:48:35.129Z,17.75
2018-06-11T09:51:05.396Z,19.07
2018-06-11T09:53:35.801Z,19.12
2018-06-11T09:56:06.792Z,17.50
2018-06-11T09:58:36.962Z,16.27
2018-06-11T10:01:07.705Z,13.45
2018-06-11T10:03:36.984Z,13.85
2018-06-11T10:06:07.644Z,16.35
2018-06-11T10:08:37.849Z,16.67
2018-06-11T10:11:08.492Z,17.10
2018-06-11T10:13:39.295Z,16.12
2018-06-11T10:16:10.160Z,15.38
2018-06-11T10:18:39.940Z,14.93
2018-06-11T10:21:11.428Z,13.60
2018-06-11T10:23:41.757Z,15.35
2018-06-11T10:26:11.836Z,13.88
2018-06-11T10:28:41.940Z,12.10
2018-06-11T10:31:12.101Z,12.60
2018-06-11T10:33:41.768Z,12.90
2018-06-11T10:36:10.973Z,13.75
2018-06-11T10:38:40.987Z,13.15
2018-06-11T10:41:10.884Z,12.00
2018-06-11T10:43:40.854Z,11.85
2018-06-11T10:46:10.842Z,10.72
2018-06-11T10:48:41.208Z,13.32
2018-06-11T10:51:11.517Z,13.72
2018-06-11T10:53:41.480Z,13.20
2018-06-11T10:56:11.618Z,13.78
2018-06-11T10:58:41.836Z,12.70
2018-06-11T11:01:12.660Z,12.10
2018-06-11T11:03:42.890Z,11.83
2018-06-11T11:06:13.123Z,12.85
2018-06-11T11:08:43.496Z,12.58
2018-06-11T11:11:13.704Z,11.68
2018-06-11T11:13:42.749Z,11.05
2018-06-11T11:16:13.073Z,11.28
2018-06-11T11:18:42.832Z,10.82
2018-06-11T11:21:13.209Z,11.68
2018-06-11T11:23:43.651Z,13.50
2018-06-11T11:26:14.513Z,11.53
2018-06-11T11:28:44.508Z,11.90
2018-06-11T11:31:14.300Z,12.70
2018-06-11T11:33:44.148Z,12.80
2018-06-11T11:36:14.123Z,13.20
2018-06-11T11:38:43.355Z,12.58
2018-06-11T11:41:13.197Z,14.13
2018-06-11T11:43:43.181Z,12.73
2018-06-11T11:46:14.192Z,13.00
2018-06-11T11:48:44.515Z,13.65
2018-06-11T11:51:14.592Z,13.55
2018-06-11T11:53:44.363Z,13.95
2018-06-11T11:56:14.575Z,13.70
2018-06-11T11:58:44.925Z,13.68
2018-06-11T12:01:14.973Z,16.20
2018-06-11T12:03:45.060Z,20.23
2018-06-11T12:06:15.012Z,18.67
2018-06-11T12:08:45.023Z,21.52
2018-06-11T12:11:15.141Z,18.42
2018-06-11T12:13:45.261Z,17.95
2018-06-11T12:16:16.200Z,23.27
2018-06-11T12:18:46.606Z,22.13
2018-06-11T12:21:16.685Z,30.45
2018-06-11T12:23:46.838Z,24.47
2018-06-11T12:26:18.005Z,26.80
2018-06-11T12:28:48.021Z,25.00
2018-06-11T12:31:17.189Z,23.67
2018-06-11T12:33:48.411Z,28.15
2018-06-11T12:36:18.501Z,34.95
2018-06-11T12:38:48.041Z,29.98
2018-06-11T12:41:18.472Z,23.67
2018-06-11T12:43:49.061Z,26.70
2018-06-11T12:46:21.000Z,48.33
2018-06-11T12:48:50.256Z,30.75
2018-06-11T12:51:20.324Z,22.32
2018-06-11T12:53:50.807Z,31.68
2018-06-11T12:56:20.988Z,24.35
2018-06-11T12:58:51.298Z,28.75
2018-06-11T13:01:20.714Z,37.85
2018-06-11T13:03:50.297Z,23.30
2018-06-11T13:06:21.442Z,19.65
2018-06-11T13:08:51.570Z,17.55
2018-06-11T13:11:21.697Z,36.10
2018-06-11T13:13:52.607Z,16.02
2018-06-11T13:16:23.488Z,9.53
2018-06-11T13:18:53.381Z,9.13
2018-06-11T13:21:24.604Z,34.43
2018-06-11T13:23:53.721Z,13.05
2018-06-11T13:26:23.904Z,13.05
2018-06-11T13:28:54.158Z,9.45
2018-06-11T13:31:24.389Z,14.00
2018-06-11T13:33:53.915Z,13.22
2018-06-11T13:36:23.783Z,13.18
2018-06-11T13:38:53.829Z,9.95
2018-06-11T13:41:24.046Z,7.80
2018-06-11T13:43:54.353Z,11.28
2018-06-11T13:46:23.582Z,15.10
2018-06-11T13:48:52.922Z,7.95
2018-06-11T13:51:22.272Z,8.18
2018-06-11T13:53:52.580Z,12.63
2018-06-11T13:56:22.937Z,15.53
2018-06-11T13:58:52.185Z,9.73
2018-06-11T14:01:21.392Z,9.18
2018-06-11T14:03:51.432Z,12.82
2018-06-11T14:06:20.632Z,10.48
2018-06-11T14:08:50.108Z,7.37
2018-06-11T14:11:19.544Z,8.40
2018-06-11T14:13:48.745Z,8.20
2018-06-11T14:16:18.933Z,8.65
2018-06-11T14:18:48.952Z,6.58
2018-06-11T14:21:19.085Z,4.95
2018-06-11T14:23:49.129Z,6.72
2018-06-11T14:26:19.256Z,5.28
2018-06-11T14:28:48.493Z,6.30
2018-06-11T14:31:19.076Z,7.60
2018-06-11T14:33:48.332Z,5.83
2018-06-11T14:36:18.168Z,5.53
2018-06-11T14:38:50.300Z,4.53
2018-06-11T14:41:19.523Z,7.97
2018-06-11T14:43:48.913Z,5.50
2018-06-11T14:46:18.453Z,6.83
2018-06-11T14:48:48.537Z,10.50
2018-06-11T14:51:17.756Z,6.60
2018-06-11T14:53:46.936Z,6.20
2018-06-11T14:56:16.160Z,6.08
2018-06-11T14:58:45.352Z,5.40
2018-06-11T15:01:14.784Z,6.30
2018-06-11T15:03:44.075Z,6.45
2018-06-11T15:06:13.239Z,6.17
2018-06-11T15:08:42.914Z,8.85
2018-06-11T15:11:13.047Z,6.83
2018-06-11T15:13:43.308Z,10.03
2018-06-11T15:16:13.391Z,6.83
2018-06-11T15:18:43.537Z,9.35
2018-06-11T15:21:13.565Z,7.03
2018-06-11T15:23:43.193Z,9.03
2018-06-11T15:26:13.297Z,8.20
2018-06-11T15:28:42.544Z,8.23
2018-06-11T15:31:12.505Z,8.75
2018-06-11T15:33:41.653Z,8.05
2018-06-11T15:36:10.773Z,7.53
2018-06-11T15:38:41.021Z,7.05
2018-06-11T15:41:10.412Z,7.95
2018-06-11T15:43:41.274Z,8.85
2018-06-11T15:46:10.429Z,9.15
2018-06-11T15:48:40.228Z,6.03
2018-06-11T15:51:10.289Z,6.10
2018-06-11T15:53:40.876Z,6.33
2018-06-11T15:56:10.097Z,5.42
2018-06-11T15:58:39.284Z,6.17
2018-06-11T16:01:09.539Z,5.20
2018-06-11T16:03:38.648Z,6.10
2018-06-11T16:06:07.853Z,6.22
2018-06-11T16:08:37.766Z,7.62
2018-06-11T16:11:08.027Z,6.53
2018-06-11T16:13:37.780Z,6.67
2018-06-11T16:16:06.992Z,7.12
2018-06-11T16:18:36.296Z,6.00
2018-06-11T16:21:06.368Z,9.63
2018-06-11T16:23:36.268Z,4.87
2018-06-11T16:26:07.557Z,5.45
2018-06-11T16:28:36.725Z,8.63
2018-06-11T16:31:05.854Z,5.87
2018-06-11T16:33:35.316Z,5.45
2018-06-11T16:36:05.536Z,6.62
2018-06-11T16:38:35.476Z,4.72
2018-06-11T16:41:04.604Z,6.08
2018-06-11T16:43:34.697Z,5.70
2018-06-11T16:46:03.791Z,4.72
2018-06-11T16:48:32.945Z,4.03
2018-06-11T16:51:03.217Z,5.33
2018-06-11T16:53:33.104Z,7.83
2018-06-11T16:56:02.310Z,4.53
2018-06-11T16:58:32.308Z,6.28
2018-06-11T17:01:02.267Z,5.03
2018-06-11T17:03:31.437Z,7.40
2018-06-11T17:06:00.661Z,3.05
2018-06-11T17:08:30.060Z,5.28
2018-06-11T17:10:59.460Z,4.28
2018-06-11T17:13:28.621Z,5.35
2018-06-11T17:15:58.162Z,5.05
2018-06-11T17:18:27.457Z,4.58
2018-06-11T17:20:57.591Z,6.17
2018-06-11T17:23:26.744Z,4.22
2018-06-11T17:25:55.994Z,4.95
2018-06-11T17:28:25.361Z,5.12
2018-06-11T17:30:54.544Z,5.70
2018-06-11T17:33:23.744Z,4.50
2018-06-11T17:35:53.285Z,5.47
2018-06-11T17:38:23.305Z,3.05
2018-06-11T17:40:52.465Z,3.15
2018-06-11T17:43:21.648Z,3.95
2018-06-11T17:45:51.277Z,4.20
2018-06-11T17:48:20.457Z,5.00
2018-06-11T17:50:49.696Z,6.50
2018-06-11T17:53:18.893Z,4.47
2018-06-11T17:55:48.073Z,6.00
2018-06-11T17:58:17.297Z,4.25
2018-06-11T18:00:47.417Z,6.45
2018-06-11T18:03:16.501Z,5.83
2018-06-11T18:05:45.680Z,4.87
2018-06-11T18:08:15.125Z,4.75
2018-06-11T18:10:44.384Z,5.53
2018-06-11T18:13:13.602Z,4.20
2018-06-11T18:15:42.897Z,3.87
2018-06-11T18:18:12.068Z,6.92
2018-06-11T18:20:41.320Z,5.12
2018-06-11T18:23:11.021Z,3.60
2018-06-11T18:25:40.272Z,6.45
2018-06-11T18:28:09.484Z,5.30
2018-06-11T18:30:39.017Z,6.03
2018-06-11T18:33:08.216Z,7.08
2018-06-11T18:35:38.005Z,4.53
2018-06-11T18:38:08.208Z,5.80
2018-06-11T18:40:37.437Z,4.42
2018-06-11T18:43:06.837Z,5.00
2018-06-11T18:45:36.212Z,6.55
2018-06-11T18:48:05.425Z,6.37
2018-06-11T18:50:35.153Z,9.28
2018-06-11T18:53:05.348Z,5.37
2018-06-11T18:55:34.652Z,5.22
2018-06-11T18:58:03.840Z,4.03
2018-06-11T19:00:33.184Z,3.80
2018-06-11T19:03:03.116Z,7.95
2018-06-11T19:05:32.088Z,4.92
2018-06-11T19:08:01.244Z,4.62
2018-06-11T19:10:30.796Z,5.72
2018-06-11T19:12:59.961Z,4.80
2018-06-11T19:15:29.968Z,5.72
2018-06-11T19:17:59.159Z,4.37
2018-06-11T19:20:28.360Z,4.08
2018-06-11T19:22:57.561Z,5.25
2018-06-11T19:25:26.772Z,4.47
2018-06-11T19:27:55.997Z,4.37
2018-06-11T19:30:25.197Z,7.10
2018-06-11T19:34:24.256Z,4.15
2018-06-11T19:36:54.212Z,5.15
2018-06-11T19:39:23.768Z,4.83
2018-06-11T19:41:52.969Z,5.42
2018-06-11T19:44:22.804Z,5.00
2018-06-11T19:46:52.028Z,5.20
2018-06-11T19:49:22.844Z,7.28
2018-06-11T19:51:52.037Z,7.92
2018-06-11T19:54:21.252Z,4.83
2018-06-11T19:56:51.173Z,5.47
2018-06-11T19:59:20.348Z,4.33
2018-06-11T20:01:50.377Z,5.35
2018-06-11T20:04:19.484Z,5.03
2018-06-11T20:06:48.644Z,5.12
2018-06-11T20:09:17.863Z,6.58
2018-06-11T20:11:47.080Z,5.40
2018-06-11T20:14:16.301Z,4.25
2018-06-11T20:16:45.773Z,4.53
2018-06-11T20:19:14.976Z,6.12
2018-06-11T20:21:44.136Z,5.17
2018-06-11T20:24:13.848Z,8.93
2018-06-11T20:26:43.160Z,7.42
2018-06-11T20:29:12.341Z,5.05
2018-06-11T20:31:41.481Z,5.03
2018-06-11T20:34:10.652Z,4.75
2018-06-11T20:36:39.829Z,4.78
2018-06-11T20:39:09.244Z,4.03
2018-06-11T20:41:38.736Z,5.33
2018-06-11T20:44:08.998Z,6.12
2018-06-11T20:46:38.177Z,4.80
2018-06-11T20:49:07.253Z,6.58
2018-06-11T20:51:36.477Z,7.33
2018-06-11T20:54:05.748Z,6.78
2018-06-11T20:56:34.997Z,5.53
2018-06-11T20:59:04.187Z,6.42
2018-06-11T21:01:33.340Z,7.78
2018-06-11T21:04:03.507Z,5.90
2018-06-11T21:06:32.652Z,7.47
2018-06-11T21:09:02.063Z,8.55
2018-06-11T21:11:31.308Z,7.95
2018-06-11T21:14:00.502Z,6.35
2018-06-11T21:16:29.656Z,5.92
2018-06-11T21:18:59.213Z,8.68
2018-06-11T21:21:28.530Z,8.85
2018-06-11T21:23:57.681Z,8.48
2018-06-11T21:26:26.878Z,7.72
2018-06-11T21:28:56.310Z,9.10
2018-06-11T21:31:25.482Z,9.30
2018-06-11T21:33:54.863Z,7.78
2018-06-11T21:36:24.109Z,6.42
2018-06-11T21:38:53.249Z,9.30
2018-06-11T21:41:23.376Z,8.15
2018-06-11T21:43:52.626Z,6.92
2018-06-11T21:46:22.079Z,8.20
2018-06-11T21:48:51.284Z,6.92
2018-06-11T21:51:20.996Z,7.47
2018-06-11T21:53:50.099Z,8.68
2018-06-11T21:56:19.317Z,6.97
2018-06-11T21:58:48.677Z,6.92
2018-06-11T22:01:17.928Z,6.95
2018-06-11T22:03:47.195Z,9.25
2018-06-11T22:06:16.298Z,10.25
2018-06-11T22:08:45.521Z,7.58
2018-06-11T22:11:14.821Z,8.48
2018-06-11T22:13:44.185Z,6.97
2018-06-11T22:16:13.601Z,6.83
2018-06-11T22:18:42.812Z,8.93
2018-06-11T22:21:12.321Z,8.23
2018-06-11T22:23:41.808Z,7.90
2018-06-11T22:26:11.004Z,11.45
2018-06-11T22:28:40.673Z,10.93
2018-06-11T22:31:09.913Z,11.90
2018-06-11T22:33:39.008Z,9.38
2018-06-11T22:36:08.463Z,9.80
2018-06-11T22:38:37.644Z,12.15
2018-06-11T22:41:06.792Z,8.95
2018-06-11T22:43:36.492Z,9.03
2018-06-11T22:46:05.629Z,9.65
2018-06-11T22:48:35.197Z,7.60
2018-06-11T22:51:04.445Z,15.35
2018-06-11T22:53:33.600Z,9.65
2018-06-11T22:56:02.804Z,12.65
2018-06-11T22:58:32.041Z,12.53
2018-06-11T23:01:02.884Z,10.55
2018-06-11T23:03:32.148Z,11.12
2018-06-11T23:06:01.681Z,12.70
2018-06-11T23:08:30.840Z,18.20
2018-06-11T23:11:00.468Z,15.68
2018-06-11T23:13:29.965Z,15.65
2018-06-11T23:16:00.009Z,15.83
2018-06-11T23:18:29.156Z,12.68
2018-06-11T23:20:58.976Z,17.12
2018-06-11T23:23:28.128Z,14.75
2018-06-11T23:25:57.261Z,17.65
2018-06-11T23:28:26.809Z,17.73
2018-06-11T23:30:55.912Z,20.60
2018-06-11T23:33:25.060Z,17.67
2018-06-11T23:35:55.025Z,15.63
2018-06-11T23:38:24.196Z,18.75
2018-06-11T23:40:53.372Z,14.75
2018-06-11T23:43:23.088Z,17.50
2018-06-11T23:45:52.690Z,17.90
2018-06-11T23:48:21.908Z,18.85
2018-06-11T23:50:51.504Z,18.85
2018-06-11T23:53:20.740Z,18.10
2018-06-11T23:55:49.936Z,18.75
2018-06-11T23:58:19.136Z,20.60
